Macarani, Brazil
Current Conditions -  °F | °C
As of 12:50 AM on Tuesday 21 Oct 2014 (Local Time) from SBQV Reporting Station
Clear Clear  
Wind Chill: 68°   Ceiling: Unl
Heat Index: 68°   Visibility: 6mi
Dew Point: 66°   Wind: 6mph
Humidity: 94%   Direction: 60°ENE
Pressure: 30"   Gusts: NA
Location:  15.57°S, 40.42°W
Report Text: SBQV 210350Z 06005KT CAVOK 20/19 Q1016
Loading
Personal Weather Stations






























Interactive Weather Map
Tropical Storm Tracking
New forecast layout! Learn more

10-Day Weather Forecast

Advertisements
Track Severe Weather on mobile